sensor_id;sensor_type;location;lat;lon;timestamp;temperature;humidity
14600;DHT22;7386;45.586;12.854;2022-08-04T06:49:49;27.20;86.50
14600;DHT22;7386;45.586;12.854;2022-08-04T06:52:38;26.10;90.80
14600;DHT22;7386;45.586;12.854;2022-08-04T06:55:07;26.20;90.50
14600;DHT22;7386;45.586;12.854;2022-08-04T06:57:38;26.30;90.50
14600;DHT22;7386;45.586;12.854;2022-08-04T07:00:09;26.40;90.40
14600;DHT22;7386;45.586;12.854;2022-08-04T07:02:41;26.40;90.00
14600;DHT22;7386;45.586;12.854;2022-08-04T07:05:10;26.60;89.40
14600;DHT22;7386;45.586;12.854;2022-08-04T07:07:40;26.80;89.30
14600;DHT22;7386;45.586;12.854;2022-08-04T07:10:24;26.90;88.70
14600;DHT22;7386;45.586;12.854;2022-08-04T07:12:56;27.10;89.40
14600;DHT22;7386;45.586;12.854;2022-08-04T07:15:25;27.20;87.40
14600;DHT22;7386;45.586;12.854;2022-08-04T07:17:54;27.30;87.60
14600;DHT22;7386;45.586;12.854;2022-08-04T07:20:27;27.40;86.70
14600;DHT22;7386;45.586;12.854;2022-08-04T07:23:02;27.50;86.70
14600;DHT22;7386;45.586;12.854;2022-08-04T07:25:31;27.60;84.20
14600;DHT22;7386;45.586;12.854;2022-08-04T07:28:23;27.80;83.50
14600;DHT22;7386;45.586;12.854;2022-08-04T07:30:53;27.90;81.90
14600;DHT22;7386;45.586;12.854;2022-08-04T07:33:22;28.10;82.60
14600;DHT22;7386;45.586;12.854;2022-08-04T07:35:53;28.10;82.00
14600;DHT22;7386;45.586;12.854;2022-08-04T07:38:37;28.20;81.40
14600;DHT22;7386;45.586;12.854;2022-08-04T07:41:21;28.40;81.20
14600;DHT22;7386;45.586;12.854;2022-08-04T07:44:14;28.50;81.20
14600;DHT22;7386;45.586;12.854;2022-08-04T07:46:45;28.60;79.50
14600;DHT22;7386;45.586;12.854;2022-08-04T07:49:14;28.80;79.90
14600;DHT22;7386;45.586;12.854;2022-08-04T07:52:03;28.90;78.90
14600;DHT22;7386;45.586;12.854;2022-08-04T07:54:32;29.00;79.30
14600;DHT22;7386;45.586;12.854;2022-08-04T07:57:01;29.00;77.60
14600;DHT22;7386;45.586;12.854;2022-08-04T07:59:31;29.10;77.70
14600;DHT22;7386;45.586;12.854;2022-08-04T08:02:00;29.20;77.90
14600;DHT22;7386;45.586;12.854;2022-08-04T08:04:29;29.40;78.00
14600;DHT22;7386;45.586;12.854;2022-08-04T08:06:58;29.50;77.30
14600;DHT22;7386;45.586;12.854;2022-08-04T08:09:26;29.60;77.50
14600;DHT22;7386;45.586;12.854;2022-08-04T08:11:54;29.70;77.50
14600;DHT22;7386;45.586;12.854;2022-08-04T08:14:45;29.90;77.30
14600;DHT22;7386;45.586;12.854;2022-08-04T08:17:13;29.90;78.30
14600;DHT22;7386;45.586;12.854;2022-08-04T08:19:43;30.00;78.40
14600;DHT22;7386;45.586;12.854;2022-08-04T08:22:12;30.00;78.20
14600;DHT22;7386;45.586;12.854;2022-08-04T08:24:40;30.10;78.20
14600;DHT22;7386;45.586;12.854;2022-08-04T08:27:08;30.10;78.40
14600;DHT22;7386;45.586;12.854;2022-08-04T08:29:37;30.10;78.40
14600;DHT22;7386;45.586;12.854;2022-08-04T08:32:09;30.20;78.50
14600;DHT22;7386;45.586;12.854;2022-08-04T08:34:40;30.20;78.50
14600;DHT22;7386;45.586;12.854;2022-08-04T08:37:14;30.20;78.60
14600;DHT22;7386;45.586;12.854;2022-08-04T08:39:51;30.20;80.10
14600;DHT22;7386;45.586;12.854;2022-08-04T08:42:43;30.30;82.10
14600;DHT22;7386;45.586;12.854;2022-08-04T08:45:47;30.20;81.50
14600;DHT22;7386;45.586;12.854;2022-08-04T08:51:32;30.30;79.30
14600;DHT22;7386;45.586;12.854;2022-08-04T08:57:31;30.40;81.30
14600;DHT22;7386;45.586;12.854;2022-08-04T09:00:06;30.40;83.90
14600;DHT22;7386;45.586;12.854;2022-08-04T09:09:28;30.50;84.20
14600;DHT22;7386;45.586;12.854;2022-08-04T09:12:11;30.60;85.10
14600;DHT22;7386;45.586;12.854;2022-08-04T09:14:50;30.60;85.00
14600;DHT22;7386;45.586;12.854;2022-08-04T09:17:26;30.70;84.80
14600;DHT22;7386;45.586;12.854;2022-08-04T09:20:00;30.60;84.10
14600;DHT22;7386;45.586;12.854;2022-08-04T09:22:36;30.70;84.20
14600;DHT22;7386;45.586;12.854;2022-08-04T09:25:12;30.70;84.10
14600;DHT22;7386;45.586;12.854;2022-08-04T09:27:49;30.70;84.20
14600;DHT22;7386;45.586;12.854;2022-08-04T09:30:22;30.70;84.40
14600;DHT22;7386;45.586;12.854;2022-08-04T09:32:59;30.70;84.30
14600;DHT22;7386;45.586;12.854;2022-08-04T09:35:36;30.80;83.60
14600;DHT22;7386;45.586;12.854;2022-08-04T09:38:14;30.80;82.80
14600;DHT22;7386;45.586;12.854;2022-08-04T09:40:53;30.80;82.50
14600;DHT22;7386;45.586;12.854;2022-08-04T09:43:34;30.80;82.50
14600;DHT22;7386;45.586;12.854;2022-08-04T09:46:26;30.90;82.30
14600;DHT22;7386;45.586;12.854;2022-08-04T09:49:01;30.90;81.90
14600;DHT22;7386;45.586;12.854;2022-08-04T09:51:47;30.90;81.30
14600;DHT22;7386;45.586;12.854;2022-08-04T09:54:31;31.00;81.30
14600;DHT22;7386;45.586;12.854;2022-08-04T09:57:11;31.00;81.30
14600;DHT22;7386;45.586;12.854;2022-08-04T09:59:52;31.10;81.30
14600;DHT22;7386;45.586;12.854;2022-08-04T10:02:24;31.10;81.20
14600;DHT22;7386;45.586;12.854;2022-08-04T10:04:57;31.20;81.50
14600;DHT22;7386;45.586;12.854;2022-08-04T10:07:56;31.20;81.00
14600;DHT22;7386;45.586;12.854;2022-08-04T10:10:50;31.20;81.40
14600;DHT22;7386;45.586;12.854;2022-08-04T10:13:37;31.20;81.60
14600;DHT22;7386;45.586;12.854;2022-08-04T10:16:19;31.20;81.80
14600;DHT22;7386;45.586;12.854;2022-08-04T10:18:57;31.20;82.10
14600;DHT22;7386;45.586;12.854;2022-08-04T10:21:41;31.20;82.80
14600;DHT22;7386;45.586;12.854;2022-08-04T10:24:41;31.20;83.00
14600;DHT22;7386;45.586;12.854;2022-08-04T10:27:19;31.20;83.20
14600;DHT22;7386;45.586;12.854;2022-08-04T10:29:56;31.20;83.50
14600;DHT22;7386;45.586;12.854;2022-08-04T10:32:28;31.20;83.80
14600;DHT22;7386;45.586;12.854;2022-08-04T10:35:04;31.20;83.80
14600;DHT22;7386;45.586;12.854;2022-08-04T10:37:42;31.30;83.60
14600;DHT22;7386;45.586;12.854;2022-08-04T10:40:31;31.30;83.40
14600;DHT22;7386;45.586;12.854;2022-08-04T10:43:17;31.20;84.10
14600;DHT22;7386;45.586;12.854;2022-08-04T10:45:56;31.20;83.70
14600;DHT22;7386;45.586;12.854;2022-08-04T10:48:35;31.20;83.70
14600;DHT22;7386;45.586;12.854;2022-08-04T10:51:20;31.20;84.20
14600;DHT22;7386;45.586;12.854;2022-08-04T10:53:56;31.30;84.70
14600;DHT22;7386;45.586;12.854;2022-08-04T10:56:32;31.20;84.60
14600;DHT22;7386;45.586;12.854;2022-08-04T10:59:06;31.20;84.70
14600;DHT22;7386;45.586;12.854;2022-08-04T11:01:38;31.30;85.10
14600;DHT22;7386;45.586;12.854;2022-08-04T11:04:36;31.30;84.80
14600;DHT22;7386;45.586;12.854;2022-08-04T11:07:12;31.30;85.10
14600;DHT22;7386;45.586;12.854;2022-08-04T11:09:43;31.20;84.60
14600;DHT22;7386;45.586;12.854;2022-08-04T11:12:16;31.20;83.80
14600;DHT22;7386;45.586;12.854;2022-08-04T11:14:52;31.20;84.00
14600;DHT22;7386;45.586;12.854;2022-08-04T11:17:28;31.20;84.10
14600;DHT22;7386;45.586;12.854;2022-08-04T11:20:09;31.20;83.90
14600;DHT22;7386;45.586;12.854;2022-08-04T11:23:03;31.20;84.10
14600;DHT22;7386;45.586;12.854;2022-08-04T11:25:39;31.20;83.90
14600;DHT22;7386;45.586;12.854;2022-08-04T11:28:13;31.20;81.20
14600;DHT22;7386;45.586;12.854;2022-08-04T11:30:50;31.30;82.50
14600;DHT22;7386;45.586;12.854;2022-08-04T11:33:30;31.20;82.50
14600;DHT22;7386;45.586;12.854;2022-08-04T11:36:05;31.30;82.60
14600;DHT22;7386;45.586;12.854;2022-08-04T11:38:39;31.30;82.30
14600;DHT22;7386;45.586;12.854;2022-08-04T11:41:20;31.40;82.50
14600;DHT22;7386;45.586;12.854;2022-08-04T11:43:54;31.40;82.40
14600;DHT22;7386;45.586;12.854;2022-08-04T11:46:38;31.40;82.50
14600;DHT22;7386;45.586;12.854;2022-08-04T11:49:14;31.40;83.00
14600;DHT22;7386;45.586;12.854;2022-08-04T11:51:44;31.40;83.30
14600;DHT22;7386;45.586;12.854;2022-08-04T11:54:14;31.40;83.60
14600;DHT22;7386;45.586;12.854;2022-08-04T11:56:44;31.50;84.40
14600;DHT22;7386;45.586;12.854;2022-08-04T11:59:13;31.40;85.20
14600;DHT22;7386;45.586;12.854;2022-08-04T12:01:59;31.40;85.70
14600;DHT22;7386;45.586;12.854;2022-08-04T12:04:40;31.50;86.20
14600;DHT22;7386;45.586;12.854;2022-08-04T12:07:19;31.50;86.90
14600;DHT22;7386;45.586;12.854;2022-08-04T12:10:17;31.50;86.30
14600;DHT22;7386;45.586;12.854;2022-08-04T12:13:14;31.50;86.80
14600;DHT22;7386;45.586;12.854;2022-08-04T12:16:02;31.40;86.90
14600;DHT22;7386;45.586;12.854;2022-08-04T12:18:37;31.40;87.10
14600;DHT22;7386;45.586;12.854;2022-08-04T12:21:10;31.40;87.30
14600;DHT22;7386;45.586;12.854;2022-08-04T12:23:43;31.40;87.60
14600;DHT22;7386;45.586;12.854;2022-08-04T12:26:16;31.40;87.60
14600;DHT22;7386;45.586;12.854;2022-08-04T12:28:49;31.40;87.50
14600;DHT22;7386;45.586;12.854;2022-08-04T12:31:43;31.40;86.90
14600;DHT22;7386;45.586;12.854;2022-08-04T12:34:16;31.40;86.90
14600;DHT22;7386;45.586;12.854;2022-08-04T12:36:54;31.40;87.60
14600;DHT22;7386;45.586;12.854;2022-08-04T12:39:27;31.40;87.70
14600;DHT22;7386;45.586;12.854;2022-08-04T12:42:01;31.40;88.40
14600;DHT22;7386;45.586;12.854;2022-08-04T12:44:33;31.40;89.00
14600;DHT22;7386;45.586;12.854;2022-08-04T12:47:09;31.40;89.40
14600;DHT22;7386;45.586;12.854;2022-08-04T12:50:00;31.40;90.00
14600;DHT22;7386;45.586;12.854;2022-08-04T12:52:42;31.40;89.40
14600;DHT22;7386;45.586;12.854;2022-08-04T12:55:31;31.40;88.90
14600;DHT22;7386;45.586;12.854;2022-08-04T12:58:11;31.30;88.50
14600;DHT22;7386;45.586;12.854;2022-08-04T13:00:43;31.30;89.00
14600;DHT22;7386;45.586;12.854;2022-08-04T13:03:19;31.40;89.90
14600;DHT22;7386;45.586;12.854;2022-08-04T13:05:52;31.40;89.30
14600;DHT22;7386;45.586;12.854;2022-08-04T13:08:22;31.40;89.40
14600;DHT22;7386;45.586;12.854;2022-08-04T13:10:52;31.40;90.00
14600;DHT22;7386;45.586;12.854;2022-08-04T13:13:27;31.40;90.00
14600;DHT22;7386;45.586;12.854;2022-08-04T13:15:58;31.40;88.60
14600;DHT22;7386;45.586;12.854;2022-08-04T13:18:29;31.40;88.30
14600;DHT22;7386;45.586;12.854;2022-08-04T13:21:17;31.40;88.60
14600;DHT22;7386;45.586;12.854;2022-08-04T13:24:13;31.40;86.90
14600;DHT22;7386;45.586;12.854;2022-08-04T13:26:59;31.30;85.70
14600;DHT22;7386;45.586;12.854;2022-08-04T13:29:33;31.40;85.60
14600;DHT22;7386;45.586;12.854;2022-08-04T13:32:24;31.40;84.40
14600;DHT22;7386;45.586;12.854;2022-08-04T13:34:54;31.50;85.00
14600;DHT22;7386;45.586;12.854;2022-08-04T13:37:25;31.50;85.90
14600;DHT22;7386;45.586;12.854;2022-08-04T13:39:59;31.40;84.80
14600;DHT22;7386;45.586;12.854;2022-08-04T13:42:33;31.40;85.20
14600;DHT22;7386;45.586;12.854;2022-08-04T13:45:05;31.40;87.00
14600;DHT22;7386;45.586;12.854;2022-08-04T13:47:35;31.50;86.70
14600;DHT22;7386;45.586;12.854;2022-08-04T13:50:07;31.40;85.20
14600;DHT22;7386;45.586;12.854;2022-08-04T13:52:39;31.40;85.50
14600;DHT22;7386;45.586;12.854;2022-08-04T13:55:21;31.40;85.60
14600;DHT22;7386;45.586;12.854;2022-08-04T13:57:58;31.40;85.30
14600;DHT22;7386;45.586;12.854;2022-08-04T14:00:41;31.30;84.10
14600;DHT22;7386;45.586;12.854;2022-08-04T14:03:17;31.40;85.30
14600;DHT22;7386;45.586;12.854;2022-08-04T14:06:24;31.40;86.30
14600;DHT22;7386;45.586;12.854;2022-08-04T14:08:54;31.30;85.40
14600;DHT22;7386;45.586;12.854;2022-08-04T14:11:33;31.40;85.20
14600;DHT22;7386;45.586;12.854;2022-08-04T14:14:25;31.40;84.80
14600;DHT22;7386;45.586;12.854;2022-08-04T14:17:03;31.40;84.60
14600;DHT22;7386;45.586;12.854;2022-08-04T14:19:53;31.40;84.10
14600;DHT22;7386;45.586;12.854;2022-08-04T14:22:33;31.40;83.70
14600;DHT22;7386;45.586;12.854;2022-08-04T14:25:06;31.40;83.80
14600;DHT22;7386;45.586;12.854;2022-08-04T14:27:48;31.40;84.10
14600;DHT22;7386;45.586;12.854;2022-08-04T14:30:25;31.50;83.40
14600;DHT22;7386;45.586;12.854;2022-08-04T14:32:58;31.50;82.80
14600;DHT22;7386;45.586;12.854;2022-08-04T14:35:56;31.50;82.70
14600;DHT22;7386;45.586;12.854;2022-08-04T14:38:48;31.50;83.00
14600;DHT22;7386;45.586;12.854;2022-08-04T14:41:18;31.40;83.00
14600;DHT22;7386;45.586;12.854;2022-08-04T14:43:50;31.50;83.80
14600;DHT22;7386;45.586;12.854;2022-08-04T14:46:20;31.50;83.70
14600;DHT22;7386;45.586;12.854;2022-08-04T14:49:07;31.50;83.50
14600;DHT22;7386;45.586;12.854;2022-08-04T14:51:41;31.50;83.80
14600;DHT22;7386;45.586;12.854;2022-08-04T14:54:13;31.50;83.90
14600;DHT22;7386;45.586;12.854;2022-08-04T14:56:51;31.60;84.10
14600;DHT22;7386;45.586;12.854;2022-08-04T14:59:21;31.60;83.40
14600;DHT22;7386;45.586;12.854;2022-08-04T15:01:51;31.50;84.20
14600;DHT22;7386;45.586;12.854;2022-08-04T15:04:27;31.50;84.90
14600;DHT22;7386;45.586;12.854;2022-08-04T15:06:58;31.60;85.40
14600;DHT22;7386;45.586;12.854;2022-08-04T15:09:30;31.60;84.90
14600;DHT22;7386;45.586;12.854;2022-08-04T15:11:59;31.60;85.20
14600;DHT22;7386;45.586;12.854;2022-08-04T15:14:32;31.60;84.90
14600;DHT22;7386;45.586;12.854;2022-08-04T15:17:05;31.60;84.90
14600;DHT22;7386;45.586;12.854;2022-08-04T15:19:54;31.60;85.30
14600;DHT22;7386;45.586;12.854;2022-08-04T15:22:24;31.60;85.70
14600;DHT22;7386;45.586;12.854;2022-08-04T15:24:52;31.60;86.00
14600;DHT22;7386;45.586;12.854;2022-08-04T15:27:23;31.60;85.50
14600;DHT22;7386;45.586;12.854;2022-08-04T15:30:00;31.60;84.90
14600;DHT22;7386;45.586;12.854;2022-08-04T15:32:30;31.60;84.60
14600;DHT22;7386;45.586;12.854;2022-08-04T15:35:09;31.60;84.00
14600;DHT22;7386;45.586;12.854;2022-08-04T15:37:44;31.60;83.60
14600;DHT22;7386;45.586;12.854;2022-08-04T15:40:17;31.60;84.40
14600;DHT22;7386;45.586;12.854;2022-08-04T15:43:10;31.60;85.00
14600;DHT22;7386;45.586;12.854;2022-08-04T15:45:53;31.60;84.20
14600;DHT22;7386;45.586;12.854;2022-08-04T15:48:43;31.60;86.30
14600;DHT22;7386;45.586;12.854;2022-08-04T15:51:12;31.60;87.20
14600;DHT22;7386;45.586;12.854;2022-08-04T15:54:19;31.60;87.50
14600;DHT22;7386;45.586;12.854;2022-08-04T15:56:51;31.50;85.70
14600;DHT22;7386;45.586;12.854;2022-08-04T15:59:57;31.60;87.10
14600;DHT22;7386;45.586;12.854;2022-08-04T16:02:39;31.60;87.70
14600;DHT22;7386;45.586;12.854;2022-08-04T16:05:31;31.60;87.60
14600;DHT22;7386;45.586;12.854;2022-08-04T16:08:10;31.60;86.60
14600;DHT22;7386;45.586;12.854;2022-08-04T16:10:41;31.60;86.50
14600;DHT22;7386;45.586;12.854;2022-08-04T16:13:11;31.50;87.10
14600;DHT22;7386;45.586;12.854;2022-08-04T16:15:45;31.60;87.70
14600;DHT22;7386;45.586;12.854;2022-08-04T16:18:21;31.60;86.80
14600;DHT22;7386;45.586;12.854;2022-08-04T16:21:05;31.60;87.50
14600;DHT22;7386;45.586;12.854;2022-08-04T16:24:07;31.60;88.40
14600;DHT22;7386;45.586;12.854;2022-08-04T16:26:47;31.60;89.00
14600;DHT22;7386;45.586;12.854;2022-08-04T16:29:33;31.60;88.90
14600;DHT22;7386;45.586;12.854;2022-08-04T16:32:12;31.60;88.80
14600;DHT22;7386;45.586;12.854;2022-08-04T16:34:45;31.60;88.40
14600;DHT22;7386;45.586;12.854;2022-08-04T16:37:26;31.50;87.90
14600;DHT22;7386;45.586;12.854;2022-08-04T16:40:31;31.50;87.20
14600;DHT22;7386;45.586;12.854;2022-08-04T16:43:06;31.40;86.10
14600;DHT22;7386;45.586;12.854;2022-08-04T16:45:43;31.50;85.60
14600;DHT22;7386;45.586;12.854;2022-08-04T16:48:13;31.40;85.60
14600;DHT22;7386;45.586;12.854;2022-08-04T16:50:52;31.40;86.30
14600;DHT22;7386;45.586;12.854;2022-08-04T16:53:24;31.40;87.50
14600;DHT22;7386;45.586;12.854;2022-08-04T16:56:14;31.40;88.20
14600;DHT22;7386;45.586;12.854;2022-08-04T16:58:45;31.40;88.60
14600;DHT22;7386;45.586;12.854;2022-08-04T17:01:21;31.40;88.50
14600;DHT22;7386;45.586;12.854;2022-08-04T17:04:01;31.40;89.10
14600;DHT22;7386;45.586;12.854;2022-08-04T17:06:35;31.40;87.50
14600;DHT22;7386;45.586;12.854;2022-08-04T17:09:06;31.30;86.90
14600;DHT22;7386;45.586;12.854;2022-08-04T17:11:36;31.30;86.30
14600;DHT22;7386;45.586;12.854;2022-08-04T17:14:04;31.30;86.30
14600;DHT22;7386;45.586;12.854;2022-08-04T17:16:35;31.30;86.40
14600;DHT22;7386;45.586;12.854;2022-08-04T17:19:05;31.30;87.20
14600;DHT22;7386;45.586;12.854;2022-08-04T17:21:56;31.20;87.70
14600;DHT22;7386;45.586;12.854;2022-08-04T17:24:31;31.20;88.50
14600;DHT22;7386;45.586;12.854;2022-08-04T17:27:00;31.10;88.80
14600;DHT22;7386;45.586;12.854;2022-08-04T17:29:48;31.10;89.00
14600;DHT22;7386;45.586;12.854;2022-08-04T17:32:19;31.00;86.70
14600;DHT22;7386;45.586;12.854;2022-08-04T17:34:50;30.90;85.00
14600;DHT22;7386;45.586;12.854;2022-08-04T17:37:22;30.90;83.80
14600;DHT22;7386;45.586;12.854;2022-08-04T17:40:13;30.90;83.20
14600;DHT22;7386;45.586;12.854;2022-08-04T17:43:00;30.80;83.00
14600;DHT22;7386;45.586;12.854;2022-08-04T17:46:16;30.80;83.40
14600;DHT22;7386;45.586;12.854;2022-08-04T17:49:01;30.70;82.40
14600;DHT22;7386;45.586;12.854;2022-08-04T17:51:39;30.70;82.50
14600;DHT22;7386;45.586;12.854;2022-08-04T17:54:31;30.70;82.60
14600;DHT22;7386;45.586;12.854;2022-08-04T17:57:13;30.60;84.00
14600;DHT22;7386;45.586;12.854;2022-08-04T17:59:51;30.60;84.10
14600;DHT22;7386;45.586;12.854;2022-08-04T18:02:25;30.50;84.20
14600;DHT22;7386;45.586;12.854;2022-08-04T18:05:00;30.50;85.00
14600;DHT22;7386;45.586;12.854;2022-08-04T18:07:39;30.50;87.10
14600;DHT22;7386;45.586;12.854;2022-08-04T18:10:37;30.40;86.10
14600;DHT22;7386;45.586;12.854;2022-08-04T18:13:23;30.30;85.40
14600;DHT22;7386;45.586;12.854;2022-08-04T18:16:02;30.30;85.60
14600;DHT22;7386;45.586;12.854;2022-08-04T18:18:31;30.20;85.50
14600;DHT22;7386;45.586;12.854;2022-08-04T18:21:04;30.20;86.70
14600;DHT22;7386;45.586;12.854;2022-08-04T18:23:33;30.10;88.90
14600;DHT22;7386;45.586;12.854;2022-08-04T18:26:18;30.10;89.60
14600;DHT22;7386;45.586;12.854;2022-08-04T18:28:50;30.00;90.00
14600;DHT22;7386;45.586;12.854;2022-08-04T18:31:18;30.00;90.00
14600;DHT22;7386;45.586;12.854;2022-08-04T18:33:48;29.90;90.20
14600;DHT22;7386;45.586;12.854;2022-08-04T18:36:23;29.90;90.40
14600;DHT22;7386;45.586;12.854;2022-08-04T18:39:05;29.80;90.40
14600;DHT22;7386;45.586;12.854;2022-08-04T18:41:55;29.80;90.50
14600;DHT22;7386;45.586;12.854;2022-08-04T18:44:30;29.70;90.50
14600;DHT22;7386;45.586;12.854;2022-08-04T18:47:19;29.70;90.70
14600;DHT22;7386;45.586;12.854;2022-08-04T18:50:08;29.60;90.80
14600;DHT22;7386;45.586;12.854;2022-08-04T18:52:56;29.60;91.00
14600;DHT22;7386;45.586;12.854;2022-08-04T18:55:25;29.60;91.30
14600;DHT22;7386;45.586;12.854;2022-08-04T18:58:14;29.60;91.10
14600;DHT22;7386;45.586;12.854;2022-08-04T19:00:59;29.50;91.10
14600;DHT22;7386;45.586;12.854;2022-08-04T19:03:39;29.50;91.20
14600;DHT22;7386;45.586;12.854;2022-08-04T19:06:10;29.40;91.20
14600;DHT22;7386;45.586;12.854;2022-08-04T19:08:46;29.40;91.30
14600;DHT22;7386;45.586;12.854;2022-08-04T19:11:15;29.40;91.20
14600;DHT22;7386;45.586;12.854;2022-08-04T19:14:05;29.40;91.40
14600;DHT22;7386;45.586;12.854;2022-08-04T19:16:39;29.30;91.50
14600;DHT22;7386;45.586;12.854;2022-08-04T19:19:13;29.30;91.80
14600;DHT22;7386;45.586;12.854;2022-08-04T19:21:45;29.30;91.70
14600;DHT22;7386;45.586;12.854;2022-08-04T19:24:33;29.30;92.00
14600;DHT22;7386;45.586;12.854;2022-08-04T19:27:06;29.30;92.00
14600;DHT22;7386;45.586;12.854;2022-08-04T19:29:38;29.20;92.00
14600;DHT22;7386;45.586;12.854;2022-08-04T19:32:09;29.20;92.00
14600;DHT22;7386;45.586;12.854;2022-08-04T19:34:41;29.20;92.00
14600;DHT22;7386;45.586;12.854;2022-08-04T19:37:13;29.20;92.10
14600;DHT22;7386;45.586;12.854;2022-08-04T19:40:03;29.10;92.00
14600;DHT22;7386;45.586;12.854;2022-08-04T19:42:31;29.10;92.00
14600;DHT22;7386;45.586;12.854;2022-08-04T19:45:02;29.10;92.00
14600;DHT22;7386;45.586;12.854;2022-08-04T19:47:30;29.10;92.10
14600;DHT22;7386;45.586;12.854;2022-08-04T19:50:19;29.10;92.20
14600;DHT22;7386;45.586;12.854;2022-08-04T19:52:50;29.10;92.30
14600;DHT22;7386;45.586;12.854;2022-08-04T19:55:19;29.00;92.40
14600;DHT22;7386;45.586;12.854;2022-08-04T19:58:04;29.10;92.50
14600;DHT22;7386;45.586;12.854;2022-08-04T20:00:39;29.00;92.70
14600;DHT22;7386;45.586;12.854;2022-08-04T20:03:17;29.00;92.60
14600;DHT22;7386;45.586;12.854;2022-08-04T20:05:50;29.00;92.70
14600;DHT22;7386;45.586;12.854;2022-08-04T20:08:30;29.00;92.80
14600;DHT22;7386;45.586;12.854;2022-08-04T20:10:59;29.00;92.80
14600;DHT22;7386;45.586;12.854;2022-08-04T20:13:29;29.00;93.00
14600;DHT22;7386;45.586;12.854;2022-08-04T20:16:09;28.90;93.00
14600;DHT22;7386;45.586;12.854;2022-08-04T20:18:57;29.00;93.00
14600;DHT22;7386;45.586;12.854;2022-08-04T20:21:30;28.90;93.00
14600;DHT22;7386;45.586;12.854;2022-08-04T20:24:19;28.90;93.00
14600;DHT22;7386;45.586;12.854;2022-08-04T20:27:09;28.90;92.90
14600;DHT22;7386;45.586;12.854;2022-08-04T20:29:42;28.80;93.00
14600;DHT22;7386;45.586;12.854;2022-08-04T20:32:17;28.80;92.90
14600;DHT22;7386;45.586;12.854;2022-08-04T20:34:50;28.80;92.90
14600;DHT22;7386;45.586;12.854;2022-08-04T20:37:19;28.80;92.90
14600;DHT22;7386;45.586;12.854;2022-08-04T20:39:52;28.80;92.90
14600;DHT22;7386;45.586;12.854;2022-08-04T20:42:22;28.80;93.00
14600;DHT22;7386;45.586;12.854;2022-08-04T20:44:59;28.80;93.00
14600;DHT22;7386;45.586;12.854;2022-08-04T20:47:31;28.70;92.90
14600;DHT22;7386;45.586;12.854;2022-08-04T20:50:02;28.70;93.00
14600;DHT22;7386;45.586;12.854;2022-08-04T20:52:35;28.70;93.00
14600;DHT22;7386;45.586;12.854;2022-08-04T20:55:04;28.70;93.10
14600;DHT22;7386;45.586;12.854;2022-08-04T20:57:33;28.50;93.00
14600;DHT22;7386;45.586;12.854;2022-08-04T21:00:16;28.60;93.10
14600;DHT22;7386;45.586;12.854;2022-08-04T21:02:57;28.60;93.10
14600;DHT22;7386;45.586;12.854;2022-08-04T21:05:26;28.60;93.10
14600;DHT22;7386;45.586;12.854;2022-08-04T21:07:57;28.60;93.20
14600;DHT22;7386;45.586;12.854;2022-08-04T21:10:27;28.60;93.30
14600;DHT22;7386;45.586;12.854;2022-08-04T21:12:56;28.60;93.40
14600;DHT22;7386;45.586;12.854;2022-08-04T21:15:28;28.50;93.40
14600;DHT22;7386;45.586;12.854;2022-08-04T21:18:18;28.50;93.40
14600;DHT22;7386;45.586;12.854;2022-08-04T21:20:55;28.50;93.40
14600;DHT22;7386;45.586;12.854;2022-08-04T21:23:23;28.50;93.40
14600;DHT22;7386;45.586;12.854;2022-08-04T21:25:55;28.50;93.30
14600;DHT22;7386;45.586;12.854;2022-08-04T21:28:24;28.50;93.30
14600;DHT22;7386;45.586;12.854;2022-08-04T21:30:53;28.50;93.20
14600;DHT22;7386;45.586;12.854;2022-08-04T21:33:26;28.40;93.20
14600;DHT22;7386;45.586;12.854;2022-08-04T21:36:14;28.40;93.20
14600;DHT22;7386;45.586;12.854;2022-08-04T21:38:46;28.40;93.40
14600;DHT22;7386;45.586;12.854;2022-08-04T21:41:34;28.40;93.40
14600;DHT22;7386;45.586;12.854;2022-08-04T21:44:25;28.30;93.30
14600;DHT22;7386;45.586;12.854;2022-08-04T21:46:54;28.10;93.30
14600;DHT22;7386;45.586;12.854;2022-08-04T21:49:24;28.00;93.40
14600;DHT22;7386;45.586;12.854;2022-08-04T21:51:52;27.90;93.50
14600;DHT22;7386;45.586;12.854;2022-08-04T21:54:27;27.80;93.70
14600;DHT22;7386;45.586;12.854;2022-08-04T21:56:55;27.60;93.70
14600;DHT22;7386;45.586;12.854;2022-08-04T21:59:29;27.60;93.80
14600;DHT22;7386;45.586;12.854;2022-08-04T22:01:58;27.50;93.80
14600;DHT22;7386;45.586;12.854;2022-08-04T22:04:29;27.40;93.80
14600;DHT22;7386;45.586;12.854;2022-08-04T22:06:57;27.40;93.90
14600;DHT22;7386;45.586;12.854;2022-08-04T22:09:29;27.30;93.90
14600;DHT22;7386;45.586;12.854;2022-08-04T22:12:08;27.40;94.00
14600;DHT22;7386;45.586;12.854;2022-08-04T22:14:38;27.30;93.90
14600;DHT22;7386;45.586;12.854;2022-08-04T22:17:07;27.30;93.90
14600;DHT22;7386;45.586;12.854;2022-08-04T22:19:56;27.30;94.00
14600;DHT22;7386;45.586;12.854;2022-08-04T22:22:28;27.30;93.90
14600;DHT22;7386;45.586;12.854;2022-08-04T22:25:00;27.30;93.90
14600;DHT22;7386;45.586;12.854;2022-08-04T22:27:39;27.30;93.90
14600;DHT22;7386;45.586;12.854;2022-08-04T22:30:27;27.30;93.90
14600;DHT22;7386;45.586;12.854;2022-08-04T22:33:04;27.40;93.90
14600;DHT22;7386;45.586;12.854;2022-08-04T22:35:36;27.30;93.80
14600;DHT22;7386;45.586;12.854;2022-08-04T22:38:15;27.30;93.70
14600;DHT22;7386;45.586;12.854;2022-08-04T22:40:56;27.40;93.70
14600;DHT22;7386;45.586;12.854;2022-08-04T22:43:25;27.40;93.70
14600;DHT22;7386;45.586;12.854;2022-08-04T22:46:01;27.40;93.70
14600;DHT22;7386;45.586;12.854;2022-08-04T22:48:33;27.40;93.60
14600;DHT22;7386;45.586;12.854;2022-08-04T22:51:04;27.50;93.50
14600;DHT22;7386;45.586;12.854;2022-08-04T22:53:34;27.50;93.50
14600;DHT22;7386;45.586;12.854;2022-08-04T22:56:05;27.50;93.50
14600;DHT22;7386;45.586;12.854;2022-08-04T22:58:38;27.50;93.40
14600;DHT22;7386;45.586;12.854;2022-08-04T23:01:17;27.50;93.40
14600;DHT22;7386;45.586;12.854;2022-08-04T23:03:49;27.40;93.30
14600;DHT22;7386;45.586;12.854;2022-08-04T23:06:23;27.50;93.30
14600;DHT22;7386;45.586;12.854;2022-08-04T23:08:54;27.50;93.30
14600;DHT22;7386;45.586;12.854;2022-08-04T23:11:23;27.50;93.30
14600;DHT22;7386;45.586;12.854;2022-08-04T23:14:01;27.50;93.30
14600;DHT22;7386;45.586;12.854;2022-08-04T23:16:30;27.40;93.30
14600;DHT22;7386;45.586;12.854;2022-08-04T23:19:06;27.50;93.40
14600;DHT22;7386;45.586;12.854;2022-08-04T23:21:42;27.50;93.40
14600;DHT22;7386;45.586;12.854;2022-08-04T23:24:13;27.50;93.30
14600;DHT22;7386;45.586;12.854;2022-08-04T23:26:42;27.50;93.30
14600;DHT22;7386;45.586;12.854;2022-08-04T23:29:10;27.50;93.40
14600;DHT22;7386;45.586;12.854;2022-08-04T23:31:38;27.50;93.40
14600;DHT22;7386;45.586;12.854;2022-08-04T23:34:26;27.60;93.50